UIBBUIII

Guest
Details From UIBB - Bratsk
To UIII - Irkutsk
Flight Number -
Tags Generated
Created
Modified
Stats Distance 264 nm / 489 km
Max Altitude 0 ft / 0 m
Waypoints 3
Social Downloads 1
Likes 0
Share VATSIM

Download

Looking for another format? Having issues loading an existing format? Contact us
Advertisement - Login to hide

Notes

Generated

Route

UIBB C UIII

ID Type Via Altitude Latitude Longitude Leg Dist Tot Dist Heading (true) Name
O UIBB APT - 0 ft / 0 m 56.37652˚ 101.67514˚ - 0 nm - -
C NDB - 0 ft / 0 m 52.27483˚ 104.36334˚ 263 nm 263 nm 158° / 160° Irkutsk NDB
O UIII APT - 0 ft / 0 m 52.27217˚ 104.37436˚ 0 nm 264 nm 112° / 112° -

Altitude Profile

Advertisement - Login to hide

Weather


0- 5 10 15 20 25 30 35+ Temperature / ° C

Clouds and Precipitation
Forecast for 2017-12-18 18:00 UTC. Updated 2 hours ago

Ground ~20,000 ft ~40,000 ft Winds

UIBB

Details ICAO UIBB (BTK)
Name BRATSK
Region Russia
Timezone Asia/Irkutsk (UTC+8.0)
Stats Elevation 1,610 ft / 491 m (AMSL)
Location 56.370157° 101.702949°
Runways 2
Magnetic Variation 2.057° W

METAR

UIBB 181900Z 27004MPS 160V290 2400 -SHSN BKN023CB M08/M10 Q1024 R30/491032 NOSIG RMK QFE725/0967

Decode

TAF

TAF UIBB 181700Z 1818/1918 25005MPS 2900 -SHSN BKN011CB TEMPO 1818/1906 0700 +SHSN VV003 BECMG 1906/1907 5000 -SHSN

Decode

Departure Runways

ID Width Length Bearing (true) Bearing (mag) Surface Threshold Offset Overrun Length
12 197 ft / 60 m 10,335 ft / 3,150 m 114.88° 116.94° Concrete 0 ft / 0 m 246 ft / 75 m
12L 246 ft / 75 m 6,568 ft / 2,002 m 114.60° 116.66° Grass 0 ft / 0 m 0 ft / 0 m
30 197 ft / 60 m 10,335 ft / 3,150 m 294.92° 296.98° Concrete 0 ft / 0 m 246 ft / 75 m
30R 246 ft / 75 m 6,568 ft / 2,002 m 294.62° 296.68° Grass 0 ft / 0 m 0 ft / 0 m

UIII

Details ICAO UIII (IKT)
Name Irkutsk
Region Russia
Timezone Asia/Irkutsk (UTC+8.0)
Stats Elevation 1,675 ft / 511 m (AMSL)
Location 52.266437° 104.395694°
Runways 1
Magnetic Variation 3.762° W

METAR

UIII 181900Z 28003MPS 2500 -SHSN BKN005CB M03/M04 Q1028 R30/490530 NOSIG RMK QBB160 QFE726/0968

Decode

TAF

TAF UIII 181700Z 1818/1918 30003MPS 2000 SHSN BKN011CB TEMPO 1818/1908 32008G13MPS 0900 +SHSN BLSN VV005 BECMG 1908/1910 9999 NSW

Decode

Destination Runways

ID Width Length Bearing (true) Bearing (mag) Surface Threshold Offset Overrun Length
12 148 ft / 45 m 10,408 ft / 3,172 m 113.68° 117.44° Concrete 1,312 ft / 400 m 266 ft / 81 m
30 148 ft / 45 m 10,408 ft / 3,172 m 293.72° 297.48° Concrete 1,178 ft / 359 m 1,316 ft / 401 m

Approach Navaids

Runway Type Ident Frequency Range Bearing (true) Bearing (mag) Slope Elevation
12 Localiser ICN 111.30 MHz 18 nm / 33 km 113.46° 117.22° - 1,675 ft / 511 m (AMSL)
12 Glidescope ICN 111.30 MHz 10 nm / 19 km 113.70° 117.46° 3.30° 1,675 ft / 511 m (AMSL)
30 Localiser IIR 110.30 MHz 18 nm / 33 km 293.46° 297.22° - 1,675 ft / 511 m (AMSL)
30 Glidescope IIR 110.30 MHz 10 nm / 19 km 293.70° 297.46° 3.30° 1,675 ft / 511 m (AMSL)

Popular Alternatives